createdAt,value
2022-09-12T00:03:30.234Z,11.90
2022-09-12T00:08:34.363Z,11.84
2022-09-12T00:13:41.530Z,11.88
2022-09-12T00:18:42.693Z,11.87
2022-09-12T00:23:44.991Z,11.84
2022-09-12T00:28:49.146Z,11.92
2022-09-12T00:33:51.426Z,11.98
2022-09-12T00:38:55.580Z,11.90
2022-09-12T00:43:57.875Z,11.80
2022-09-12T00:49:02.037Z,11.72
2022-09-12T00:54:06.187Z,11.72
2022-09-12T00:59:10.336Z,11.62
2022-09-12T01:04:14.475Z,11.62
2022-09-12T01:09:18.671Z,11.51
2022-09-12T01:14:22.809Z,11.45
2022-09-12T01:19:27.014Z,11.42
2022-09-12T01:24:31.141Z,11.39
2022-09-12T01:29:35.289Z,11.34
2022-09-12T01:34:39.485Z,11.33
2022-09-12T01:39:43.682Z,11.28
2022-09-12T01:44:47.781Z,11.25
2022-09-12T01:49:51.932Z,11.28
2022-09-12T01:54:56.104Z,11.31
2022-09-12T02:00:00.268Z,11.31
2022-09-12T02:05:04.439Z,11.30
2022-09-12T02:10:08.596Z,11.22
2022-09-12T02:15:12.751Z,11.20
2022-09-12T02:20:26.023Z,11.25
2022-09-12T02:25:21.084Z,11.23
2022-09-12T02:30:23.424Z,11.20
2022-09-12T02:35:27.534Z,11.22
2022-09-12T02:40:29.785Z,11.28
2022-09-12T02:45:34.029Z,11.26
2022-09-12T02:50:38.108Z,11.18
2022-09-12T02:55:42.281Z,11.20
2022-09-12T03:00:46.431Z,11.15
2022-09-12T03:05:50.605Z,11.08
2022-09-12T03:10:54.752Z,11.14
2022-09-12T03:15:58.885Z,11.18
2022-09-12T03:21:03.082Z,11.09
2022-09-12T03:26:07.242Z,10.97
2022-09-12T03:31:11.393Z,10.85
2022-09-12T03:36:15.589Z,10.83
2022-09-12T03:41:19.722Z,10.82
2022-09-12T03:46:23.851Z,10.79
2022-09-12T03:51:28.060Z,10.74
2022-09-12T03:56:32.191Z,10.71
2022-09-12T04:01:36.357Z,10.73
2022-09-12T04:06:40.560Z,10.93
2022-09-12T04:11:44.696Z,10.94
2022-09-12T04:16:48.851Z,10.85
2022-09-12T04:21:53.015Z,10.95
2022-09-12T04:26:55.265Z,10.93
2022-09-12T04:31:59.440Z,10.83
2022-09-12T04:37:03.621Z,10.81
2022-09-12T04:42:07.778Z,10.77
2022-09-12T04:47:11.919Z,10.69
2022-09-12T04:52:16.057Z,10.72
2022-09-12T04:57:20.255Z,10.77
2022-09-12T05:02:24.545Z,10.79
2022-09-12T05:07:28.554Z,10.73
2022-09-12T05:12:32.749Z,10.76
2022-09-12T05:17:36.901Z,10.82
2022-09-12T05:22:41.047Z,10.97
2022-09-12T05:27:48.633Z,11.09
2022-09-12T05:37:53.522Z,11.27
2022-09-12T05:42:57.692Z,11.28
2022-09-12T05:48:01.869Z,11.38
2022-09-12T05:53:06.006Z,11.44
2022-09-12T05:58:10.438Z,11.53
2022-09-12T06:03:14.344Z,11.69
2022-09-12T06:08:18.483Z,11.86
2022-09-12T06:13:22.687Z,12.08
2022-09-12T06:18:24.962Z,12.40
2022-09-12T06:23:29.121Z,12.61
2022-09-12T06:28:33.235Z,12.92
2022-09-12T06:33:37.420Z,13.19
2022-09-12T06:38:41.660Z,13.42
2022-09-12T06:43:45.723Z,13.46
2022-09-12T06:48:49.994Z,13.53
2022-09-12T06:53:54.048Z,13.81
2022-09-12T06:58:58.224Z,14.03
2022-09-12T07:04:02.383Z,14.28
2022-09-12T07:09:06.567Z,14.36
2022-09-12T07:14:10.809Z,14.74
2022-09-12T07:19:14.830Z,14.98
2022-09-12T07:24:18.992Z,15.26
2022-09-12T07:29:36.543Z,15.43
2022-09-12T07:34:27.352Z,15.60
2022-09-12T07:39:31.507Z,15.75
2022-09-12T07:49:39.823Z,16.05
2022-09-12T07:59:53.013Z,16.29
2022-09-12T08:04:48.528Z,16.39
2022-09-12T08:09:59.693Z,16.59
2022-09-12T08:15:01.956Z,16.72
2022-09-12T08:20:13.199Z,16.97
2022-09-12T08:25:15.401Z,17.15
2022-09-12T08:30:26.608Z,17.29
2022-09-12T08:35:37.762Z,17.50
2022-09-12T08:40:48.904Z,17.65
2022-09-12T08:46:00.125Z,17.75
2022-09-12T08:51:11.236Z,17.91
2022-09-12T08:56:22.404Z,18.10
2022-09-12T09:01:31.746Z,18.27
2022-09-12T09:06:35.840Z,18.45
2022-09-12T09:11:40.014Z,18.61
2022-09-12T09:16:44.139Z,18.72
2022-09-12T09:21:48.326Z,19.00
2022-09-12T09:26:52.477Z,19.15
2022-09-12T09:31:56.613Z,19.37
2022-09-12T09:37:00.788Z,19.54
2022-09-12T09:42:04.942Z,19.68
2022-09-12T09:47:09.109Z,19.65
2022-09-12T09:52:13.247Z,19.73
2022-09-12T09:57:17.457Z,20.03
2022-09-12T10:02:23.993Z,20.46
2022-09-12T10:07:25.765Z,20.65
2022-09-12T10:12:29.898Z,20.58
2022-09-12T10:17:34.679Z,20.52
2022-09-12T10:22:38.371Z,20.81
2022-09-12T10:27:42.358Z,20.97
2022-09-12T10:32:46.535Z,20.87
2022-09-12T10:37:52.276Z,21.13
2022-09-12T10:42:54.831Z,21.41
2022-09-12T10:47:57.136Z,21.15
2022-09-12T10:53:01.273Z,21.50
2022-09-12T10:58:03.544Z,21.72
2022-09-12T11:03:07.672Z,21.73
2022-09-12T11:08:11.859Z,21.93
2022-09-12T11:13:16.022Z,22.14
2022-09-12T11:18:20.214Z,22.14
2022-09-12T11:23:24.315Z,22.06
2022-09-12T11:28:28.517Z,22.56
2022-09-12T11:33:32.633Z,22.81
2022-09-12T11:38:36.816Z,22.68
2022-09-12T11:48:45.225Z,23.07
2022-09-12T11:54:01.249Z,23.11
2022-09-12T11:58:53.414Z,23.25
2022-09-12T12:03:57.599Z,23.43
2022-09-12T12:09:01.737Z,23.45
2022-09-12T12:14:05.880Z,23.71
2022-09-12T12:19:10.835Z,23.60
2022-09-12T12:24:14.222Z,23.48
2022-09-12T12:29:18.391Z,23.37
2022-09-12T12:34:22.555Z,23.78
2022-09-12T12:39:26.707Z,23.95
2022-09-12T12:44:30.860Z,24.06
2022-09-12T12:49:35.141Z,24.00
2022-09-12T12:54:37.290Z,23.83
2022-09-12T12:59:39.565Z,24.13
2022-09-12T13:04:43.705Z,23.85
2022-09-12T13:09:47.836Z,23.93
2022-09-12T13:14:52.011Z,23.73
2022-09-12T13:20:16.976Z,24.12
2022-09-12T13:25:00.306Z,24.34
2022-09-12T13:30:04.693Z,24.24
2022-09-12T13:35:08.683Z,24.18
2022-09-12T13:40:12.847Z,24.32
2022-09-12T13:50:21.143Z,24.51
2022-09-12T13:55:25.280Z,24.63
2022-09-12T14:00:29.427Z,24.71
2022-09-12T14:05:33.607Z,24.89
2022-09-12T14:10:37.785Z,24.81
2022-09-12T14:15:41.947Z,24.89
2022-09-12T14:20:46.098Z,24.64
2022-09-12T14:25:50.257Z,24.68
2022-09-12T14:30:54.440Z,24.73
2022-09-12T14:35:58.550Z,24.51
2022-09-12T14:41:02.708Z,24.68
2022-09-12T14:46:08.921Z,24.87
2022-09-12T14:51:09.161Z,24.91
2022-09-12T14:56:13.317Z,24.64
2022-09-12T15:01:17.518Z,24.70
2022-09-12T15:06:21.654Z,24.51
2022-09-12T15:11:25.789Z,24.52
2022-09-12T15:16:29.907Z,24.65
2022-09-12T15:21:34.054Z,24.76
2022-09-12T15:26:38.254Z,24.79
2022-09-12T15:31:42.406Z,24.79
2022-09-12T15:36:46.552Z,24.86
2022-09-12T15:41:50.712Z,24.78
2022-09-12T15:46:54.886Z,24.52
2022-09-12T15:51:59.068Z,24.45
2022-09-12T16:02:07.352Z,25.74
2022-09-12T16:07:11.513Z,26.31
2022-09-12T16:12:15.701Z,27.54
2022-09-12T16:17:19.830Z,27.33
2022-09-12T16:22:23.974Z,27.11
2022-09-12T16:27:28.184Z,26.12
2022-09-12T16:32:32.315Z,25.03
2022-09-12T16:37:34.629Z,25.08
2022-09-12T16:42:43.084Z,25.08
2022-09-12T16:47:40.978Z,24.64
2022-09-12T16:52:45.192Z,24.16
2022-09-12T16:57:49.307Z,23.76
2022-09-12T17:02:53.556Z,23.48
2022-09-12T17:07:57.623Z,23.15
2022-09-12T17:13:01.799Z,23.02
2022-09-12T17:18:05.956Z,22.73
2022-09-12T17:23:10.141Z,22.26
2022-09-12T17:28:14.259Z,21.79
2022-09-12T17:33:18.441Z,21.34
2022-09-12T17:38:25.284Z,20.89
2022-09-12T17:43:26.784Z,20.58
2022-09-12T17:48:30.936Z,20.24
2022-09-12T17:53:35.066Z,19.83
2022-09-12T17:58:39.227Z,19.67
2022-09-12T18:03:43.399Z,19.38
2022-09-12T18:08:47.585Z,19.13
2022-09-12T18:13:51.730Z,18.89
2022-09-12T18:18:55.867Z,18.70
2022-09-12T18:24:00.024Z,18.53
2022-09-12T18:29:04.216Z,18.38
2022-09-12T18:34:06.452Z,18.25
2022-09-12T18:39:10.600Z,18.20
2022-09-12T18:44:12.891Z,18.04
2022-09-12T18:49:17.061Z,17.74
2022-09-12T18:54:19.313Z,17.51
2022-09-12T18:59:23.475Z,17.44
2022-09-12T19:04:25.760Z,17.43
2022-09-12T19:09:29.903Z,17.32
2022-09-12T19:14:34.083Z,17.15
2022-09-12T19:19:40.608Z,17.12
2022-09-12T19:24:42.363Z,17.06
2022-09-12T19:29:46.542Z,17.07
2022-09-12T19:34:50.709Z,17.09
2022-09-12T19:39:54.892Z,17.11
2022-09-12T19:44:59.017Z,17.15
2022-09-12T19:50:03.170Z,17.23
2022-09-12T19:55:07.454Z,17.41
2022-09-12T20:00:11.477Z,17.49
2022-09-12T20:05:15.698Z,17.60
2022-09-12T20:10:19.828Z,17.65
2022-09-12T20:15:23.967Z,17.72
2022-09-12T20:20:28.121Z,17.79
2022-09-12T20:25:32.268Z,17.81
2022-09-12T20:30:36.484Z,17.80
2022-09-12T20:35:40.595Z,17.81
2022-09-12T20:40:44.779Z,17.88
2022-09-12T20:45:48.910Z,17.96
2022-09-12T20:50:51.209Z,18.01
2022-09-12T20:55:55.503Z,18.21
2022-09-12T21:00:57.642Z,18.41
2022-09-12T21:06:01.826Z,18.55
2022-09-12T21:11:05.957Z,18.66
2022-09-12T21:16:10.220Z,18.78
2022-09-12T21:21:14.303Z,18.87
2022-09-12T21:26:18.428Z,18.95
2022-09-12T21:31:22.650Z,19.04
2022-09-12T21:36:26.772Z,19.07
2022-09-12T21:41:30.920Z,19.14
2022-09-12T21:46:35.100Z,19.07
2022-09-12T21:51:39.190Z,19.00
2022-09-12T21:56:43.385Z,18.99
2022-09-12T22:01:47.582Z,18.98
2022-09-12T22:06:51.697Z,18.90
2022-09-12T22:11:55.839Z,18.85
2022-09-12T22:17:00.025Z,18.72
2022-09-12T22:22:04.145Z,18.55
2022-09-12T22:27:08.332Z,18.39
2022-09-12T22:32:10.615Z,18.37
2022-09-12T22:37:14.760Z,18.47
2022-09-12T22:42:17.008Z,18.38
2022-09-12T22:47:21.210Z,18.24
2022-09-12T22:52:25.345Z,18.16
2022-09-12T22:57:29.501Z,18.22
2022-09-12T23:02:33.681Z,18.30
2022-09-12T23:07:37.833Z,18.31
2022-09-12T23:12:41.983Z,18.21
2022-09-12T23:17:46.164Z,18.01
2022-09-12T23:22:50.289Z,17.87
2022-09-12T23:27:54.505Z,17.75
2022-09-12T23:32:58.618Z,17.62
2022-09-12T23:38:02.791Z,17.55
2022-09-12T23:43:06.967Z,17.47
2022-09-12T23:48:11.098Z,17.41
2022-09-12T23:53:15.256Z,17.25
2022-09-12T23:58:19.421Z,17.16
